Latest Coastal Weather Observations for Moruya Airport

IDN60701

Issued at 10:25 am EDT Thursday 23 October 2014 (issued every 10 minutes, with the page automatically refreshed every 10 minutes)

About coastal observations | Map of coastal stations | Coastal observations for NSW | Marine services | Other Formats
Station Details ID: 069148 Name: MORUYA AIRPORT AWS Lat: -35.90 Lon: 150.14 Height: 4.0 m
Data from the previous 72 hours. | See also: Recent months for locations in New South Wales
Date/Time
EDT
Temp

°C
Wind Pressure Rain
since 9am
mm
Weather Cloud Vis
km
Sea
Height
m
Swell
Dir
 
Speed
knots
Gust
knots
hPa Trend Height
m
Period
s
Dir
23/10:00am 20.2 E 5 6 1018.0 - 0.0 - - 10 - - - -
23/09:30am 19.7 NE 4 6 1017.8 - 0.0 - - 10 - - - -
23/09:00am 18.8 NNE 2 4 1017.7 - 0.0 - Mostly clear 10 - - - -
23/08:30am 18.2 SSW 2 4 1017.6 - 0.0 - - 10 - - - -
23/08:00am 16.3 SSW 4 6 1017.7 - 0.0 - - 10 - - - -
23/07:30am 15.2 WSW 1 5 1017.6 - 0.0 - - 10 - - - -
23/07:00am 13.1 NW 1 3 1017.5 - 0.0 - - 10 - - - -
23/06:30am 12.1 SW 1 3 1017.3 - 0.0 - - 10 - - - -
23/06:00am 12.1 W 2 6 1017.1 - 0.0 - Partly cloudy 10 - - - -
23/05:30am 11.9 CALM 0 0 1016.3 - 0.0 - - 10 - - - -
23/05:04am 11.6 CALM 0 0 1016.2 - 0.0 - - 9 - - - -
23/05:00am 11.7 CALM 0 0 1016.2 - 0.0 - - 10 - - - -
23/04:45am 11.5 CALM 0 0 1016.1 - 0.0 - - 5 - - - -
23/04:30am 11.7 CALM 0 0 1016.1 - 0.0 - - 8 - - - -
23/04:00am 11.9 CALM 0 0 1016.0 - 0.0 - - 10 - - - -
23/03:30am 11.9 SW 1 3 1016.2 - 0.0 - - 7 - - - -
23/03:03am 11.6 NNW 2 4 1016.2 - 0.0 - - 9 - - - -
23/03:00am 11.6 NW 1 4 1016.2 - 0.0 - Partly cloudy 7 - - - -
23/02:30am 11.9 CALM 0 0 1017.0 - 0.0 - - 2 - - - -
23/02:06am 12.4 CALM 0 0 1017.3 - 0.0 - - 5 - - - -
23/02:00am 12.4 CALM 0 0 1017.4 - 0.0 - - 8 - - - -
23/01:30am 12.6 CALM 0 0 1017.6 - 0.0 - - 8 - - - -
23/01:00am 12.7 CALM 0 3 1018.1 - 0.0 - - 10 - - - -
23/12:30am 12.6 CALM 0 0 1018.5 - 0.0 - - 9 - - - -
23/12:00am 13.0 WNW 0 2 1018.6 - 0.0 - - 8 - - - -
 
Date/Time
EDT
Temp

°C
Wind Pressure Rain
since 9am
mm
Weather Cloud Vis
km
Sea
Height
m
Swell
Dir
 
Speed
knots
Gust
knots
hPa Trend Height
m
Period
s
Dir
22/11:30pm 13.2 W 4 5 1018.8 - 0.0 - - 10 - - - -
22/11:00pm 13.3 WNW 4 5 1019.0 - 0.0 - - 10 - - - -
22/10:30pm 13.5 CALM 0 0 1019.1 - 0.0 - - 10 - - - -
22/10:00pm 13.5 W 3 5 1019.2 - 0.0 - - 10 - - - -
22/09:30pm 14.2 WNW 3 4 1018.9 - 0.0 - - 10 - - - -
22/09:00pm 14.4 WSW 1 4 1019.1 - 0.0 - - 10 - - - -
22/08:30pm 15.1 CALM 0 0 1019.0 - 0.0 - - 10 - - - -
22/08:00pm 16.0 CALM 0 1 1018.8 - 0.0 - - 10 - - - -
22/07:30pm 17.3 N 4 5 1018.5 - 0.0 - - 10 - - - -
22/07:00pm 18.4 NNE 11 13 1018.3 - 0.0 - - 9 - - - -
22/06:30pm 19.0 NNE 11 14 1018.3 - 0.0 - - 10 - - - -
22/06:00pm 19.2 NNE 13 16 1018.3 - 0.0 - - 10 - - - -
22/05:30pm 19.3 NNE 13 16 1018.4 - 0.0 - - 10 - - - -
22/05:00pm 20.0 NNE 12 16 1018.6 - 0.0 - - 9 - - - -
22/04:30pm 20.1 NNE 14 17 1018.5 - 0.0 - - 10 - - - -
22/04:00pm 20.5 NNE 15 19 1018.8 - 0.0 - - 10 - - - -
22/03:30pm 20.6 NNE 14 19 1019.1 - 0.0 - - 10 - - - -
22/03:00pm 20.5 NNE 15 21 1019.5 - 0.0 - - 10 - - - -
22/02:30pm 20.5 NE 15 21 1020.0 - 0.0 - - 10 - - - -
22/02:00pm 20.2 NE 16 22 1020.6 - 0.0 - - 10 - - - -
22/01:30pm 20.4 NE 15 19 1021.1 - 0.0 - - 10 - - - -
22/01:00pm 20.0 NE 15 22 1021.7 - 0.0 - - 10 - - - -
22/12:30pm 20.1 NE 13 18 1022.2 - 0.0 - - 10 - - - -
22/12:00pm 19.3 NE 13 17 1022.8 - 0.0 - - 10 - - - -
22/11:30am 19.6 NE 14 19 1023.5 - 0.0 - - 10 - - - -
22/11:00am 20.0 NNE 11 14 1024.0 - 0.0 - - 10 - - - -
22/10:30am 19.4 NNE 8 13 1024.6 - 0.0 - - 10 - - - -
22/10:00am 18.3 N 9 12 1025.1 - 0.0 - - 10 - - - -
22/09:30am 17.8 N 9 14 1025.1 - 0.0 - - 10 - - - -
22/09:00am 17.0 N 10 16 1025.4 - 0.0 - - 10 - - - -
22/08:30am 16.2 N 9 13 1025.6 - 0.0 - - 10 - - - -
22/08:00am 15.0 N 7 9 1025.9 - 0.0 - - 10 - - - -
22/07:30am 13.8 N 6 11 1026.0 - 0.0 - - 10 - - - -
22/07:00am 12.5 NNW 6 8 1026.0 - 0.0 - - 10 - - - -
22/06:30am 10.9 NNW 6 8 1026.1 - 0.0 - - 10 - - - -
22/06:00am 10.7 NNW 4 6 1026.2 - 0.0 - - 10 - - - -
22/05:30am 12.7 NNW 6 8 1026.2 - 0.0 - Partly cloudy 10 - - - -
22/05:00am 13.2 NNW 6 8 1026.3 - 0.0 - Partly cloudy 10 - - - -
22/04:30am 13.2 NNW 6 7 1026.4 - 0.0 - Partly cloudy 10 - - - -
22/04:00am 12.9 NNW 5 6 1026.6 - 0.0 - Partly cloudy 10 - - - -
22/03:30am 12.6 NNW 4 5 1027.1 - 0.0 - - 10 - - - -
22/03:00am 12.7 NNW 3 4 1027.3 - 0.0 - - 10 - - - -
22/02:30am 13.3 NNW 3 5 1027.9 - 0.0 - - 10 - - - -
22/02:00am 13.7 NNW 4 6 1028.4 - 0.0 - - 10 - - - -
22/01:30am 13.8 NNW 4 6 1028.8 - 0.0 - Partly cloudy 10 - - - -
22/01:00am 14.1 NNW 4 6 1029.3 - 0.0 - Partly cloudy 10 - - - -
22/12:30am 14.2 N 4 6 1029.6 - 0.0 - Partly cloudy 10 - - - -
22/12:00am 14.2 NNW 4 6 1030.1 - 0.0 - Mostly clear 10 - - - -
 
Date/Time
EDT
Temp

°C
Wind Pressure Rain
since 9am
mm
Weather Cloud Vis
km
Sea
Height
m
Swell
Dir
 
Speed
knots
Gust
knots
hPa Trend Height
m
Period
s
Dir
21/11:30pm 14.3 NNW 4 5 1030.4 - 0.0 - - 10 - - - -
21/11:00pm 14.6 NNW 5 7 1030.6 - 0.0 - Partly cloudy 10 - - - -
21/10:30pm 14.6 NNW 5 7 1030.7 - 0.0 - - 10 - - - -
21/10:00pm 14.6 N 3 5 1030.7 - 0.0 - - 10 - - - -
21/09:30pm 14.7 NNW 4 5 1030.8 - 0.0 - Partly cloudy 10 - - - -
21/09:00pm 14.9 NNW 4 5 1030.7 - 0.0 - Mostly clear 10 - - - -
21/08:30pm 15.0 NNW 4 5 1030.6 - 0.0 - Partly cloudy 10 - - - -
21/08:00pm 15.3 N 4 6 1030.3 - 0.0 - Partly cloudy 10 - - - -
21/07:30pm 15.6 N 5 6 1030.0 - 0.0 - Partly cloudy 10 - - - -
21/07:00pm 15.9 N 7 9 1029.8 - 0.0 - Partly cloudy 10 - - - -
21/06:30pm 16.1 N 8 11 1029.8 - 0.0 - Cloudy 10 - - - -
21/06:00pm 16.5 NNE 11 13 1029.7 - 0.0 - Partly cloudy 10 - - - -
21/05:30pm 17.0 NNE 12 15 1029.6 - 0.0 - Partly cloudy 10 - - - -
21/05:00pm 17.0 NNE 11 14 1029.8 - 0.0 - Partly cloudy 10 - - - -
21/04:30pm 17.0 NE 11 15 1029.9 - 0.0 - Partly cloudy 10 - - - -
21/04:00pm 17.2 NE 10 12 1030.0 - 0.0 - Partly cloudy 10 - - - -
21/03:30pm 17.4 NE 9 12 1030.5 - 0.0 - Partly cloudy 10 - - - -
21/03:00pm 17.4 NE 10 14 1030.9 - 0.0 - Partly cloudy 10 - - - -
21/02:30pm 17.2 NE 10 12 1031.2 - 0.0 - Partly cloudy 10 - - - -
21/02:00pm 17.2 NE 10 13 1031.6 - 0.0 - Partly cloudy 10 - - - -
21/01:30pm 17.5 NE 9 12 1032.1 - 0.0 - Partly cloudy 10 - - - -
21/01:00pm 17.6 ENE 7 9 1032.4 - 0.0 - Partly cloudy 10 - - - -
21/12:30pm 16.9 ENE 5 7 1032.7 - 0.0 - Partly cloudy 10 - - - -
21/12:00pm 17.2 ENE 6 7 1033.0 - 0.0 - Mostly cloudy 10 - - - -
21/11:30am 17.0 NNE 4 6 1033.2 - 0.0 - Partly cloudy 10 - - - -
21/11:00am 16.0 NE 5 7 1033.5 - 0.0 - Partly cloudy 10 - - - -
21/10:30am 16.0 CALM 0 3 1033.5 - 0.0 - Partly cloudy 10 - - - -
21/10:00am 15.4 W 1 4 1033.6 - 0.0 - Partly cloudy 10 - - - -
21/09:30am 14.7 W 4 6 1033.5 - 0.0 - Partly cloudy 10 - - - -
21/09:00am 14.0 WNW 4 7 1033.3 - 0.2 - Mostly cloudy 10 - - - -
21/08:30am 13.4 S 4 7 1033.2 - 0.2 - Cloudy 10 - - - -
21/08:00am 12.8 WNW 3 5 1032.9 - 0.2 - Cloudy 10 - - - -
21/07:30am 12.2 W 4 6 1032.7 - 0.2 - Cloudy 10 - - - -
21/07:00am 11.8 W 4 7 1032.4 - 0.2 - Cloudy 10 - - - -
21/06:30am 11.6 W 1 5 1032.3 - 0.2 - Cloudy 10 - - - -
21/06:00am 11.6 WSW 3 5 1032.1 - 0.2 - Mostly cloudy 10 - - - -
21/05:30am 11.5 W 5 7 1032.0 - 0.2 - Cloudy 10 - - - -
21/05:00am 11.5 WSW 5 7 1032.0 - 0.2 - Cloudy 10 - - - -
21/04:30am 11.5 W 4 5 1032.1 - 0.2 - Partly cloudy 10 - - - -
21/04:00am 11.6 W 4 6 1032.3 - 0.2 - Partly cloudy 10 - - - -
21/03:30am 11.6 W 4 6 1032.4 - 0.2 - Partly cloudy 10 - - - -
21/03:00am 11.7 W 3 5 1032.6 - 0.2 - Cloudy 10 - - - -
21/02:30am 11.7 W 4 6 1032.7 - 0.2 - Partly cloudy 10 - - - -
21/02:00am 11.7 W 4 6 1032.8 - 0.2 - Partly cloudy 10 - - - -
21/01:30am 11.8 WNW 4 5 1033.1 - 0.2 - Partly cloudy 10 - - - -
21/01:00am 11.8 WNW 4 5 1033.3 - 0.0 - Partly cloudy 10 - - - -
21/12:30am 11.9 WNW 3 5 1033.4 - 0.0 - Partly cloudy 10 - - - -
21/12:00am 12.1 CALM 0 0 1033.6 - 0.0 - Cloudy 10 - - - -
 
Date/Time
EDT
Temp

°C
Wind Pressure Rain
since 9am
mm
Weather Cloud Vis
km
Sea
Height
m
Swell
Dir
 
Speed
knots
Gust
knots
hPa Trend Height
m
Period
s
Dir
20/11:30pm 12.3 CALM 0 0 1033.6 - 0.0 - Partly cloudy 10 - - - -
20/11:00pm 12.8 NNW 4 5 1033.4 - 0.0 - Partly cloudy 7 - - - -
20/10:30pm 13.4 NNW 5 8 1033.4 - 0.0 - Partly cloudy 10 - - - -
20/10:00pm 13.7 SW 1 4 1033.5 - 0.0 - Cloudy 10 - - - -
20/09:30pm 13.6 WSW 5 6 1033.4 - 0.0 - Partly cloudy 10 - - - -
20/09:00pm 13.8 SW 1 3 1033.2 - 0.0 - Cloudy 10 - - - -
20/08:30pm 14.2 SSW 6 10 1033.0 - 0.0 - Cloudy 10 - - - -
20/08:00pm 14.6 SSW 7 9 1032.6 - 0.0 - Cloudy 10 - - - -
20/07:30pm 14.9 SSE 5 8 1032.5 - 0.0 - Cloudy 10 - - - -
20/07:00pm 14.9 SSE 4 7 1032.2 - 0.0 - Cloudy 10 - - - -
20/06:30pm 15.1 SSW 3 5 1031.9 - 0.0 - Cloudy 10 - - - -
20/06:00pm 15.3 SSW 5 7 1031.7 - 0.0 - Cloudy 10 - - - -
20/05:30pm 15.4 SSE 6 9 1031.7 - 0.0 - Cloudy 10 - - - -
20/05:00pm 15.3 SSE 7 9 1031.6 - 0.0 - Cloudy 10 - - - -
20/04:30pm 14.9 SE 7 9 1031.5 - 0.0 - Cloudy 10 - - - -
20/04:00pm 15.5 SE 5 7 1031.4 - 0.0 - Partly cloudy 10 - - - -
20/03:30pm 15.9 SSE 11 14 1031.4 - 0.0 - Partly cloudy 10 - - - -
20/03:00pm 15.4 ESE 7 10 1031.5 - 0.0 - Cloudy 10 - - - -
20/02:30pm 15.8 SE 7 10 1031.6 - 0.0 - Cloudy 10 - - - -
20/02:00pm 15.3 SSE 7 9 1031.8 - 0.0 - Partly cloudy 10 - - - -
20/01:30pm 15.4 SSE 11 15 1032.0 - 0.0 - Partly cloudy 10 - - - -
20/01:00pm 15.2 SSE 14 18 1031.9 - 0.0 - Partly cloudy 10 - - - -
20/12:30pm 15.7 S 12 17 1031.9 - 0.0 - Partly cloudy 10 - - - -
20/12:00pm 15.7 S 13 18 1032.0 - 0.0 - Mostly cloudy 10 - - - -
20/11:30am 15.5 SSE 13 18 1032.1 - 0.0 - Partly cloudy 10 - - - -
20/11:00am 15.7 S 13 17 1031.9 - 0.0 - Cloudy 10 - - - -
20/10:30am 15.6 S 14 22 1031.7 - 0.0 - Cloudy 10 - - - -

Other Formats:

Comma delimited format used in spreadsheet applications
http://www.bom.gov.au/fwo/IDN60701/IDN60701.95937.axf

JavaScript Object Notation format (JSON) in row-major order
http://www.bom.gov.au/fwo/IDN60701/IDN60701.95937.json